Juneau, AK

12:38 AM AKST on February 25, 2017 (GMT -0900)
Juneau International | | Change Station
Active Advisory: Freezing Rain Advisory

Elev 16 ft 58.35 °N, 134.58 °W | Updated 45 minutes ago

Rain
Rain
33 °F
Feels Like 24 °F
N
12
Wind Variable Wind from East

Today
High -- | Low -- °F
--% Chance of Precip.
Yesterday
High -- | Low -- °F
Precip. -- in
Pressure 30.17 in
Visibility 6.0 miles
Clouds Scattered Clouds 500 ft
Scattered Clouds 2900 ft
Overcast 3400 ft
Windchill 24 °F
Dew Point 31 °F
Humidity 92%
Rainfall 0.00 in
Snow Depth Not available.
7:03 AM 5:20 PM
Waning Crescent, 2% visible
METAR PAJN 250853Z 09010KT 6SM -RA BR SCT005 SCT029 OVC034 01/M01 A3017 RMK AO2 RAB49SNE49 SLP217 P0000 60000 T00061006 400221078 58031
Pressure 30.17 in
Visibility 6.0 miles
Clouds Scattered Clouds 500 ft
Scattered Clouds 2900 ft
Overcast 3400 ft
Windchill 24 °F
Dew Point 31 °F
Humidity 92%
Rainfall 0.00 in
Snow Depth Not available.
7:03 AM 5:20 PM
Waning Crescent, 2% visible
METAR PAJN 250853Z 09010KT 6SM -RA BR SCT005 SCT029 OVC034 01/M01 A3017 RMK AO2 RAB49SNE49 SLP217 P0000 60000 T00061006 400221078 58031

Get Your Daily Forecast Email!

Thanks for signing up!

Be on the lookout for a verification email in your inbox.

You'll start receiving the daily forecast at 8 AM.

×

10-Day Weather Forecast

Almanac

Astronomy

Feb. 25, 2017 Rise Set
Actual Time
Civil Twilight
Nautical Twilight
Astronomical Twilight
Moon
Length of Visible Light
Length of Day
Tomorrow will be .
, % of the Moon is Illuminated

Today's Extremes

State Highs State Lows

Community

WunderPhotos

Upload Photos

1,962,540 photos uploaded!

WunderBlog® & News

Nearby

Air Quality

  Air Quality AQ Index Pollutant
Not available.

Snow Depth

Station Depth Elevation

Earthquake Activity

City Distance Mag. Time & Date
Minimum magnitude displayed is 2.5.

Coastal Water Temperatures

Place Temperature

Stations

Nearby Weather Stations

Station Location Temp. Windchill Dew Point Humidity Wind Precip. Elev Updated Type
                   

Watches & Warnings

Freezing Rain Advisory
Issued: 10:54 PM AKST Feb. 24, 2017 – National Weather Service

... Freezing Rain Advisory in effect until 6 am akst Saturday...

The National Weather Service in Juneau has issued a Freezing Rain
Advisory... which is in effect until 6 am akst Saturday.

* Location... Juneau and surrounding area.

* Ice accumulations... one quarter inch or less.

* Timing... through early Saturday morning.

* Impacts... vehicular travel will be extremely hazardous.
Sidewalks will be slippery and pose a fall hazard. Aircraft
tied down outdoors will experience airframe icing. De-icing
will be necessary before flight.

Precautionary/preparedness actions...

A Freezing Rain Advisory means that ice will accumulate up to
1/4 inch.

Please stay tuned to NOAA Weather Radio or your favorite local
weather news source for updates on this situation.

This statement will be updated at 6 am akst Saturday or sooner if
conditions warrant.